Time;durP1;ratioP1;P1;durP2;ratioP2;P2;SDS_P1;SDS_P2;PMS_P1;PMS_P2;Temp;Humidity;BMP_temperature;BMP_pressure;BME280_temperature;BME280_humidity;BME280_pressure;Samples;Min_cycle;Max_cycle;Signal;HPM_P1;HPM_P2
2023/12/09 00:00:19;;;;;;;26.60;13.40;;;;;;;-2.72;82.03;99400.53;105609;1260;72655;-28
2023/12/09 00:02:47;;;;;;;28.00;12.20;;;;;;;-2.85;82.92;99400.10;103102;1257;61173;-28
2023/12/09 00:05:15;;;;;;;23.10;10.40;;;;;;;-2.93;83.28;99400.61;105623;1257;72251;-28
2023/12/09 00:07:43;;;;;;;21.20;9.20;;;;;;;-2.48;82.68;99399.81;105611;1257;74734;-28
2023/12/09 00:10:11;;;;;;;30.90;14.00;;;;;;;-1.81;80.11;99400.98;105599;1260;72669;-28
2023/12/09 00:12:39;;;;;;;24.70;11.20;;;;;;;-1.66;78.74;99401.63;105608;1256;61106;-28
2023/12/09 00:15:08;;;;;;;29.10;13.50;;;;;;;-1.75;78.72;99397.25;105629;1260;61326;-29
2023/12/09 00:25:13;;;;;;;27.10;12.10;;;;;;;-2.69;82.39;99396.21;102630;1294;600161;-29
2023/12/09 00:27:41;;;;;;;25.90;11.80;;;;;;;-2.76;82.83;99397.02;105109;1267;61173;-28
2023/12/09 00:30:10;;;;;;;35.60;13.50;;;;;;;-2.80;82.63;99398.98;104853;1269;61216;-28
2023/12/09 00:32:38;;;;;;;24.10;10.10;;;;;;;-2.91;83.30;99397.52;104861;1270;72241;-28
2023/12/09 00:42:48;;;;;;;43.00;16.30;;;;;;;-1.44;77.97;99395.27;102741;1296;599966;-28
2023/12/09 00:52:57;;;;;;;34.50;13.20;;;;;;;-2.36;81.24;99398.39;102648;1293;600130;-27
2023/12/09 00:55:24;;;;;;;32.50;14.00;;;;;;;-2.49;81.75;99396.78;105043;1266;61202;-28
2023/12/09 00:57:52;;;;;;;27.70;11.00;;;;;;;-2.56;82.03;99400.51;105034;1267;61059;-28
2023/12/09 01:00:20;;;;;;;34.50;14.70;;;;;;;-2.05;81.64;99398.15;104840;1267;70967;-28
2023/12/09 01:02:48;;;;;;;49.50;19.80;;;;;;;-1.31;78.73;99401.57;104824;1271;73444;-28
2023/12/09 01:05:16;;;;;;;42.20;16.70;;;;;;;-1.12;76.73;99402.42;104868;1268;72660;-28
2023/12/09 01:07:44;;;;;;;42.60;18.30;;;;;;;-1.36;76.96;99401.89;102515;1264;3671908;-28
2023/12/09 01:10:12;;;;;;;63.00;25.90;;;;;;;-1.77;78.38;99401.04;105209;1262;61042;-28
2023/12/09 01:12:39;;;;;;;54.70;21.50;;;;;;;-2.17;80.75;99401.35;104929;1264;70642;-28
2023/12/09 01:22:49;;;;;;;33.00;12.90;;;;;;;-2.60;83.29;99393.81;102730;1294;600182;-28
2023/12/09 01:25:17;;;;;;;40.90;17.10;;;;;;;-2.05;82.23;99394.58;105060;1264;61157;-28
2023/12/09 01:27:45;;;;;;;43.20;18.50;;;;;;;-1.42;79.35;99393.02;104948;1266;61199;-29
2023/12/09 01:30:13;;;;;;;32.70;15.10;;;;;;;-1.33;78.02;99388.35;104772;1264;70067;-28
2023/12/09 01:32:41;;;;;;;42.50;17.80;;;;;;;-1.59;78.59;99389.02;104762;1267;74273;-28
2023/12/09 01:35:10;;;;;;;50.00;18.70;;;;;;;-1.76;79.11;99393.70;104628;1267;72231;-28
2023/12/09 01:37:37;;;;;;;36.30;15.60;;;;;;;-1.97;79.90;99395.06;102438;1262;3695353;-28
2023/12/09 01:40:06;;;;;;;34.50;15.20;;;;;;;-2.16;80.71;99391.45;105139;1257;61156;-28
2023/12/09 01:42:34;;;;;;;37.90;15.30;;;;;;;-2.29;81.18;99390.90;105341;1263;72215;-28
2023/12/09 01:45:03;;;;;;;36.00;14.50;;;;;;;-2.38;81.06;99392.30;105406;1257;74291;-28
2023/12/09 01:47:31;;;;;;;37.20;15.90;;;;;;;-2.51;81.01;99391.73;105384;1261;72688;-28
2023/12/09 01:57:38;;;;;;;41.80;15.80;;;;;;;-1.07;78.39;99401.77;102652;1293;599955;-28
2023/12/09 02:07:46;;;;;;;32.90;15.10;;;;;;;-1.68;78.39;99390.11;102655;1294;600552;-28
2023/12/09 02:10:16;;;;;;;32.80;14.20;;;;;;;-1.96;79.08;99383.99;104952;1263;61190;-28
2023/12/09 02:12:52;;;;;;;34.60;15.70;;;;;;;-2.13;79.62;99381.17;104868;1264;61136;-28
2023/12/09 02:23:09;;;;;;;43.40;16.70;;;;;;;-1.05;78.92;99385.52;102588;1290;600057;-28
2023/12/09 02:33:17;;;;;;;46.10;19.20;;;;;;;-1.81;79.30;99402.35;102679;1292;599961;-28
2023/12/09 02:35:45;;;;;;;40.20;16.50;;;;;;;-2.16;81.21;99404.88;104708;1270;61719;-28
2023/12/09 02:38:14;;;;;;;36.60;16.70;;;;;;;-2.30;81.99;99407.25;104766;1267;61088;-28
2023/12/09 02:40:41;;;;;;;38.40;15.50;;;;;;;-2.29;81.55;99402.48;105256;1264;70997;-28
2023/12/09 02:50:49;;;;;;;49.10;20.40;;;;;;;-1.23;79.37;99410.89;103006;1289;599921;-26
2023/12/09 02:53:17;;;;;;;59.90;23.50;;;;;;;-1.33;78.93;99411.16;104923;1271;61625;-29
2023/12/09 02:55:44;;;;;;;58.80;21.00;;;;;;;-1.63;79.58;99407.34;105074;1264;61081;-28
2023/12/09 02:58:12;;;;;;;38.80;17.00;;;;;;;-1.98;81.15;99406.00;105059;1263;72254;-28
2023/12/09 03:00:40;;;;;;;54.90;21.70;;;;;;;-2.07;81.75;99403.14;105114;1268;73227;-28
2023/12/09 03:03:08;;;;;;;54.50;21.20;;;;;;;-2.31;83.08;99398.59;105078;1269;71372;-28
2023/12/09 03:05:36;;;;;;;57.10;19.30;;;;;;;-2.50;84.06;99400.39;102546;1266;3632176;-28
2023/12/09 03:08:04;;;;;;;56.70;18.50;;;;;;;-2.47;84.53;99401.67;105198;1263;61055;-28
2023/12/09 03:10:31;;;;;;;62.60;23.50;;;;;;;-1.91;82.99;99404.27;105154;1263;71124;-28
2023/12/09 03:12:59;;;;;;;44.50;16.90;;;;;;;-1.57;81.25;99403.11;105072;1263;74297;-28
2023/12/09 03:15:27;;;;;;;65.30;23.70;;;;;;;-1.60;80.65;99401.63;105176;1266;71382;-28
2023/12/09 03:25:38;;;;;;;51.00;16.10;;;;;;;-2.13;82.97;99390.37;102638;1292;600141;-27
2023/12/09 03:28:06;;;;;;;60.90;20.20;;;;;;;-2.29;83.07;99393.29;105049;1268;62726;-28
2023/12/09 03:30:34;;;;;;;61.90;20.20;;;;;;;-2.59;84.41;99390.88;104796;1265;61000;-28
2023/12/09 03:33:02;;;;;;;40.60;14.20;;;;;;;-2.65;86.06;99389.84;105479;1260;72221;-28
2023/12/09 03:35:30;;;;;;;52.40;17.60;;;;;;;-1.92;83.98;99389.17;105242;1261;74456;-28
2023/12/09 03:37:58;;;;;;;49.70;18.60;;;;;;;-1.32;81.73;99392.41;105225;1265;72701;-28
2023/12/09 03:40:26;;;;;;;59.70;19.60;;;;;;;-1.41;80.31;99395.73;103043;1257;3526191;-28
2023/12/09 03:42:53;;;;;;;46.60;17.20;;;;;;;-1.53;80.59;99397.88;105596;1260;61075;-28
2023/12/09 03:45:21;;;;;;;57.10;21.00;;;;;;;-1.79;81.28;99399.41;105616;1257;72047;-29
2023/12/09 03:47:49;;;;;;;43.50;15.50;;;;;;;-2.10;82.63;99399.65;105625;1258;74375;-28
2023/12/09 03:50:17;;;;;;;48.90;16.00;;;;;;;-2.31;83.20;99400.13;105600;1258;72470;-28
2023/12/09 03:52:45;;;;;;;38.00;12.30;;;;;;;-2.66;85.19;99404.82;105576;1257;61081;-28
2023/12/09 04:03:03;;;;;;;49.90;17.20;;;;;;;-1.98;83.05;99417.73;102660;1295;600105;-28
2023/12/09 04:05:31;;;;;;;45.50;15.80;;;;;;;-2.17;84.07;99415.63;104887;1264;61155;-28
2023/12/09 04:07:59;;;;;;;47.10;18.00;;;;;;;-2.31;84.26;99414.25;105053;1264;61029;-28
2023/12/09 04:10:27;;;;;;;46.60;15.90;;;;;;;-2.54;85.27;99409.99;105077;1264;72242;-28
2023/12/09 04:12:55;;;;;;;33.90;13.00;;;;;;;-2.83;87.16;99409.74;104975;1264;74306;-28
2023/12/09 04:22:21;;;;;;;35.40;13.50;;;;;;;-1.55;81.92;99401.17;102699;1295;600399;-28
2023/12/09 04:24:48;;;;;;;34.80;14.00;;;;;;;-1.76;82.28;99396.76;104807;1270;61358;-28
2023/12/09 04:27:16;;;;;;;35.80;12.00;;;;;;;-2.08;83.08;99396.00;104814;1269;61132;-28
2023/12/09 04:36:24;;;;;;;32.50;12.50;;;;;;;-2.54;84.99;99405.55;102664;1293;599489;-28
2023/12/09 04:38:52;;;;;;;34.00;11.30;;;;;;;-2.71;85.73;99406.78;104857;1270;61094;-28
2023/12/09 04:47:46;;;;;;;36.00;14.50;;;;;;;-1.25;80.40;99404.99;102618;1293;599504;-29
2023/12/09 04:50:14;;;;;;;38.20;14.30;;;;;;;-1.43;80.92;99406.66;104842;1270;61119;-28
2023/12/09 04:52:42;;;;;;;37.90;14.90;;;;;;;-1.59;81.04;99408.61;105097;1269;61119;-28
2023/12/09 05:02:49;;;;;;;31.00;12.00;;;;;;;-2.48;83.54;99411.57;102605;1298;600054;-26
2023/12/09 05:05:16;;;;;;;33.40;10.90;;;;;;;-2.61;84.54;99411.66;104919;1266;61120;-28
2023/12/09 05:07:44;;;;;;;27.40;10.70;;;;;;;-2.01;84.32;99416.09;104764;1272;61171;-28
2023/12/09 05:10:12;;;;;;;32.10;13.00;;;;;;;-1.18;82.25;99421.33;104759;1278;70959;-28
2023/12/09 05:12:40;;;;;;;39.50;14.60;;;;;;;-0.97;80.51;99418.89;104828;1270;74302;-28
2023/12/09 05:15:08;;;;;;;29.50;13.40;;;;;;;-1.02;79.64;99419.36;104694;1267;71942;-28
2023/12/09 05:17:36;;;;;;;29.20;11.30;;;;;;;-1.24;79.27;99422.67;101918;1273;3614699;-28
2023/12/09 05:20:05;;;;;;;31.00;11.00;;;;;;;-1.45;79.37;99427.98;104914;1264;61181;-28
2023/12/09 05:22:33;;;;;;;31.40;12.30;;;;;;;-1.65;79.97;99426.61;104879;1270;72807;-28
2023/12/09 05:25:02;;;;;;;32.30;11.30;;;;;;;-1.85;80.09;99421.85;105007;1263;74274;-28
2023/12/09 05:35:18;;;;;;;22.50;9.00;;;;;;;-2.41;82.30;99418.20;102860;1292;599954;-27
2023/12/09 05:37:46;;;;;;;31.30;11.20;;;;;;;-1.71;82.17;99417.23;105016;1269;61116;-28
2023/12/09 05:47:44;;;;;;;25.60;10.20;;;;;;;-0.76;77.97;99415.88;102541;1292;616382;-27
2023/12/09 05:50:11;;;;;;;29.70;11.30;;;;;;;-1.19;77.44;99416.91;105208;1263;61071;-27
2023/12/09 05:52:41;;;;;;;22.90;9.30;;;;;;;-1.74;78.03;99419.88;105217;1263;61082;-27
2023/12/09 05:55:08;;;;;;;23.30;10.80;;;;;;;-1.73;78.49;99418.99;104925;1263;72133;-27
2023/12/09 05:57:35;;;;;;;25.50;10.60;;;;;;;-1.78;79.30;99421.50;105233;1263;74201;-27
2023/12/09 06:00:05;;;;;;;32.00;13.50;;;;;;;-1.86;79.19;99418.63;102319;1266;3562693;-27
2023/12/09 06:02:32;;;;;;;24.90;9.10;;;;;;;-1.99;79.45;99419.11;105061;1268;61245;-27
2023/12/09 06:04:59;;;;;;;21.40;7.70;;;;;;;-1.48;79.95;99418.19;105207;1265;61207;-27
2023/12/09 06:07:26;;;;;;;36.00;12.80;;;;;;;-0.70;78.34;99421.02;105252;1263;72166;-27
2023/12/09 06:09:53;;;;;;;37.60;14.70;;;;;;;-0.49;77.20;99420.91;105208;1263;74356;-27
2023/12/09 06:12:20;;;;;;;29.30;13.40;;;;;;;-0.68;75.23;99417.71;105211;1263;73184;-27
2023/12/09 06:14:47;;;;;;;17.30;8.80;;;;;;;-0.83;75.90;99422.58;105219;1261;61056;-27
2023/12/09 06:17:14;;;;;;;26.40;9.00;;;;;;;-1.05;75.95;99427.64;105188;1263;61127;-27
2023/12/09 06:19:41;;;;;;;24.60;11.40;;;;;;;-1.26;76.48;99428.71;105227;1263;73603;-27
2023/12/09 06:22:08;;;;;;;28.10;12.20;;;;;;;-1.42;77.35;99427.74;105179;1263;74270;-26
2023/12/09 06:24:35;;;;;;;36.50;15.10;;;;;;;-1.57;77.42;99430.52;105198;1263;72618;-27
2023/12/09 06:27:04;;;;;;;33.00;13.70;;;;;;;-1.71;78.04;99433.61;105178;1263;61157;-26
2023/12/09 06:29:30;;;;;;;25.00;10.00;;;;;;;-1.83;78.27;99438.30;105092;1269;61179;-27
2023/12/09 06:31:57;;;;;;;34.70;12.10;;;;;;;-1.33;78.80;99438.72;105234;1263;73049;-28
2023/12/09 06:34:24;;;;;;;26.80;11.40;;;;;;;-0.49;77.25;99438.30;105107;1266;74547;-27
2023/12/09 06:36:52;;;;;;;32.80;13.70;;;;;;;-0.23;76.30;99435.99;105014;1266;73254;-27
2023/12/09 06:39:19;;;;;;;39.00;15.70;;;;;;;-0.29;75.45;99432.09;105183;1268;61037;-28
2023/12/09 06:41:47;;;;;;;33.70;13.20;;;;;;;-0.44;75.71;99436.27;104894;1271;61237;-27
2023/12/09 06:44:14;;;;;;;29.70;12.60;;;;;;;-0.56;75.81;99434.08;105189;1263;73021;-27
2023/12/09 06:46:41;;;;;;;36.30;13.90;;;;;;;-0.69;75.53;99430.37;105702;1258;72781;-27
2023/12/09 06:49:08;;;;;;;30.60;13.70;;;;;;;-0.82;75.50;99432.91;105980;1253;72637;-27
2023/12/09 06:51:35;;;;;;;32.30;13.10;;;;;;;-0.96;75.44;99433.20;105910;1253;61139;-27
2023/12/09 06:54:02;;;;;;;30.00;12.60;;;;;;;-1.10;75.61;99432.54;105960;1253;61119;-27
2023/12/09 06:56:30;;;;;;;25.50;11.10;;;;;;;-1.25;75.75;99431.57;105814;1253;72886;-27
2023/12/09 06:58:57;;;;;;;21.30;7.90;;;;;;;-1.36;76.31;99432.02;105914;1256;74230;-27
2023/12/09 07:01:24;;;;;;;30.50;12.10;;;;;;;-0.82;75.99;99431.58;105789;1253;73220;-28
2023/12/09 07:03:52;;;;;;;46.50;19.20;;;;;;;-0.10;74.14;99426.90;105553;1253;61176;-27
2023/12/09 07:06:23;;;;;;;32.50;14.70;;;;;;;0.12;73.15;99435.59;105746;1251;61607;-27
2023/12/09 07:08:50;;;;;;;29.30;10.80;;;;;;;0.05;72.70;99436.67;105704;1261;71557;-27
2023/12/09 07:11:17;;;;;;;22.30;10.20;;;;;;;-0.14;72.77;99431.48;105691;1253;74309;-27
2023/12/09 07:13:44;;;;;;;24.80;10.90;;;;;;;-0.45;73.26;99429.66;105729;1253;72685;-27
2023/12/09 07:16:13;;;;;;;20.60;10.20;;;;;;;-1.10;74.00;99430.48;105899;1254;62913;-27
2023/12/09 07:18:46;;;;;;;18.90;9.80;;;;;;;-1.22;74.48;99428.91;105621;1252;61286;-27
2023/12/09 07:21:14;;;;;;;21.10;10.40;;;;;;;-1.15;74.98;99430.27;105732;1260;71496;-27
2023/12/09 07:23:42;;;;;;;16.60;9.20;;;;;;;-1.26;75.20;99428.53;105723;1254;74449;-27
2023/12/09 07:26:10;;;;;;;20.40;11.20;;;;;;;-1.30;75.37;99433.94;105717;1257;72309;-28
2023/12/09 07:28:37;;;;;;;17.00;7.60;;;;;;;-1.31;75.38;99429.35;105833;1259;61229;-27
2023/12/09 07:31:04;;;;;;;17.60;8.50;;;;;;;-0.66;75.70;99429.92;105907;1251;61199;-27
2023/12/09 07:33:31;;;;;;;14.00;7.30;;;;;;;0.23;74.13;99433.67;105946;1254;72822;-28
2023/12/09 07:35:59;;;;;;;15.00;8.10;;;;;;;0.53;72.03;99436.98;105684;1254;73094;-28
2023/12/09 07:38:26;;;;;;;16.00;8.10;;;;;;;0.41;71.24;99436.36;105852;1253;72465;-28
2023/12/09 07:40:53;;;;;;;16.80;7.60;;;;;;;0.11;71.08;99437.52;105874;1253;61033;-28
2023/12/09 07:43:20;;;;;;;15.00;7.30;;;;;;;-0.11;72.23;99435.80;105892;1256;61119;-28
2023/12/09 07:45:47;;;;;;;14.80;7.90;;;;;;;-0.34;71.99;99435.30;105714;1258;72994;-28
2023/12/09 07:48:15;;;;;;;13.90;6.50;;;;;;;-0.53;72.58;99430.59;105908;1253;74369;-28
2023/12/09 07:50:42;;;;;;;14.40;7.50;;;;;;;-0.74;72.97;99427.60;105881;1253;72500;-28
2023/12/09 07:53:09;;;;;;;13.00;7.00;;;;;;;-0.90;73.46;99426.86;105843;1253;61006;-28
2023/12/09 07:55:36;;;;;;;16.80;7.00;;;;;;;-1.06;73.84;99425.92;105828;1255;61176;-28
2023/12/09 07:58:03;;;;;;;12.80;5.30;;;;;;;-1.11;74.14;99421.31;105916;1253;72866;-28
2023/12/09 08:00:31;;;;;;;16.40;7.00;;;;;;;-0.52;74.44;99418.95;105916;1256;74699;-28
2023/12/09 08:03:04;;;;;;;18.50;8.50;;;;;;;0.16;71.97;99418.71;105745;1253;70259;-28
2023/12/09 08:05:33;;;;;;;15.00;7.30;;;;;;;0.33;70.80;99418.02;105740;1258;61261;-28
2023/12/09 08:08:03;;;;;;;14.90;7.50;;;;;;;0.23;70.42;99415.06;105732;1258;61114;-28
2023/12/09 08:10:30;;;;;;;15.70;7.80;;;;;;;0.05;70.49;99413.11;105801;1253;71757;-28
2023/12/09 08:12:57;;;;;;;17.50;8.50;;;;;;;-0.15;71.01;99409.98;105818;1257;74343;-28
2023/12/09 08:15:24;;;;;;;13.00;6.80;;;;;;;-0.37;71.17;99409.45;105887;1254;70948;-28
2023/12/09 08:17:51;;;;;;;8.00;4.90;;;;;;;-0.61;71.70;99410.51;105674;1253;61150;-28
2023/12/09 08:20:19;;;;;;;17.80;8.10;;;;;;;-0.84;72.42;99406.05;105588;1253;61263;-28
2023/12/09 08:22:46;;;;;;;18.00;9.10;;;;;;;-1.00;73.33;99404.48;105712;1253;72885;-27
2023/12/09 08:25:13;;;;;;;9.30;5.40;;;;;;;-0.99;74.00;99409.23;105860;1253;74330;-28
2023/12/09 08:27:41;;;;;;;13.30;6.10;;;;;;;-0.14;72.96;99406.35;105832;1253;72524;-28
2023/12/09 08:30:10;;;;;;;12.30;6.90;;;;;;;0.50;70.23;99411.30;105752;1253;61146;-28
2023/12/09 08:32:41;;;;;;;14.70;7.90;;;;;;;0.63;69.50;99413.25;105735;1254;61011;-28
2023/12/09 08:35:09;;;;;;;17.50;7.30;;;;;;;0.55;69.32;99413.85;105611;1254;73120;-28
2023/12/09 08:37:37;;;;;;;11.50;7.00;;;;;;;0.39;69.37;99413.20;105780;1253;74374;-29
2023/12/09 08:40:09;;;;;;;16.80;8.50;;;;;;;0.26;70.09;99410.36;105695;1253;72488;-28
2023/12/09 08:42:42;;;;;;;13.90;7.50;;;;;;;0.07;70.46;99409.79;105826;1254;61071;-28
2023/12/09 08:45:10;;;;;;;18.30;7.80;;;;;;;-0.15;70.67;99407.07;105574;1260;61162;-28
2023/12/09 08:47:39;;;;;;;19.00;7.60;;;;;;;-0.42;71.08;99406.20;105801;1252;72363;-28
2023/12/09 08:50:11;;;;;;;11.40;6.00;;;;;;;-0.71;72.15;99408.60;105806;1259;74386;-28
2023/12/09 08:52:51;;;;;;;15.10;6.20;;;;;;;-0.84;73.33;99408.46;105748;1258;72694;-28
2023/12/09 08:55:19;;;;;;;14.40;6.50;;;;;;;-0.09;72.51;99407.06;105720;1253;61039;-28
2023/12/09 08:57:48;;;;;;;15.90;7.30;;;;;;;0.45;70.09;99409.23;105882;1256;61175;-28
2023/12/09 09:00:20;;;;;;;10.10;6.00;;;;;;;0.49;69.39;99407.39;105832;1253;73071;-28
2023/12/09 09:02:47;;;;;;;19.60;8.50;;;;;;;0.28;69.22;99397.86;105642;1254;74406;-28
2023/12/09 09:05:14;;;;;;;17.40;8.20;;;;;;;-0.03;69.63;99394.25;105676;1253;72527;-28
2023/12/09 09:07:45;;;;;;;18.20;8.00;;;;;;;-0.22;70.54;99393.30;105541;1254;61089;-28
2023/12/09 09:10:13;;;;;;;18.20;8.30;;;;;;;-0.35;70.80;99396.45;105555;1262;61199;-28
2023/12/09 09:12:43;;;;;;;14.70;6.70;;;;;;;-0.49;71.52;99391.39;105547;1262;70822;-28
2023/12/09 09:15:10;;;;;;;17.70;7.80;;;;;;;-0.59;71.52;99396.48;105964;1253;73391;-28
2023/12/09 09:17:39;;;;;;;18.30;9.20;;;;;;;-0.66;71.76;99393.95;105887;1254;72633;-28
2023/12/09 09:20:07;;;;;;;22.30;11.20;;;;;;;-0.71;72.38;99395.65;105881;1256;61161;-28
2023/12/09 09:22:35;;;;;;;17.90;8.40;;;;;;;-0.71;72.66;99394.27;105709;1253;61246;-28
2023/12/09 09:25:03;;;;;;;22.00;9.50;;;;;;;-0.10;72.51;99389.85;105916;1254;72820;-28
2023/12/09 09:27:30;;;;;;;22.00;10.70;;;;;;;0.69;70.51;99396.10;105731;1259;74459;-28
2023/12/09 09:29:58;;;;;;;14.70;7.40;;;;;;;0.87;69.05;99399.59;105889;1255;71540;-28
2023/12/09 09:32:25;;;;;;;18.10;7.70;;;;;;;0.71;68.49;99395.02;105901;1255;61166;-28
2023/12/09 09:34:53;;;;;;;16.90;7.70;;;;;;;0.49;69.01;99391.17;105683;1260;61208;-28
2023/12/09 09:37:20;;;;;;;17.80;8.60;;;;;;;0.22;69.69;99388.82;105869;1254;72911;-28
2023/12/09 09:39:48;;;;;;;19.10;8.30;;;;;;;-0.00;70.34;99384.08;105754;1253;74328;-28
2023/12/09 09:42:25;;;;;;;19.50;8.50;;;;;;;-0.13;70.53;99384.30;105807;1253;72642;-28
2023/12/09 09:45:09;;;;;;;14.10;8.00;;;;;;;-0.21;70.90;99379.09;105580;1254;61047;-28
2023/12/09 09:47:37;;;;;;;17.60;8.60;;;;;;;-0.27;70.95;99378.63;105847;1259;61148;-28
2023/12/09 09:50:06;;;;;;;18.10;8.10;;;;;;;-0.33;70.84;99378.30;105837;1258;73129;-28
2023/12/09 09:52:38;;;;;;;17.30;6.90;;;;;;;-0.49;71.35;99379.81;105735;1259;74345;-28
2023/12/09 09:55:06;;;;;;;14.10;6.40;;;;;;;0.06;71.02;99377.56;105716;1253;70572;-28
2023/12/09 09:57:33;;;;;;;17.30;7.00;;;;;;;0.59;68.98;99379.70;105682;1251;61031;-28
2023/12/09 10:00:01;;;;;;;15.80;7.70;;;;;;;0.79;68.46;99378.52;105543;1259;61259;-28
2023/12/09 10:02:28;;;;;;;17.30;8.50;;;;;;;0.69;67.78;99373.54;105755;1254;73784;-28
2023/12/09 10:04:56;;;;;;;19.50;8.10;;;;;;;0.54;67.93;99369.27;105806;1254;74373;-28
2023/12/09 10:07:23;;;;;;;22.70;9.40;;;;;;;0.38;67.77;99360.46;105649;1256;73170;-28
2023/12/09 10:09:51;;;;;;;20.40;9.60;;;;;;;0.29;68.35;99354.60;105487;1253;61104;-28
2023/12/09 10:12:18;;;;;;;20.80;9.10;;;;;;;0.17;68.46;99354.48;105552;1256;61144;-28
2023/12/09 10:14:45;;;;;;;19.00;9.10;;;;;;;-0.00;68.71;99352.33;105596;1255;73953;-27
2023/12/09 10:17:16;;;;;;;15.40;6.30;;;;;;;-0.14;69.52;99349.54;105580;1259;73477;-28
2023/12/09 10:19:45;;;;;;;17.80;8.60;;;;;;;-0.28;69.80;99343.32;105352;1253;73096;-28
2023/12/09 10:22:12;;;;;;;18.00;8.70;;;;;;;-0.33;70.21;99339.21;105547;1254;61052;-28
2023/12/09 10:24:39;;;;;;;14.90;6.80;;;;;;;-0.40;70.68;99341.30;105573;1256;61102;-28
2023/12/09 10:27:18;;;;;;;14.00;6.60;;;;;;;-0.03;71.28;99339.78;105505;1256;73538;-28
2023/12/09 10:29:45;;;;;;;15.30;7.30;;;;;;;0.82;69.41;99344.89;105289;1260;74136;-28
2023/12/09 10:32:14;;;;;;;14.80;6.80;;;;;;;1.05;67.75;99347.48;105652;1256;72524;-28
2023/12/09 10:34:41;;;;;;;13.10;6.50;;;;;;;0.93;67.42;99349.09;105879;1254;61157;-28
2023/12/09 10:37:09;;;;;;;16.20;7.00;;;;;;;0.75;67.86;99348.39;105714;1255;61053;-29
2023/12/09 10:39:36;;;;;;;19.70;8.60;;;;;;;0.43;67.87;99346.60;105599;1258;73721;-28
2023/12/09 10:42:04;;;;;;;16.00;7.50;;;;;;;0.18;68.61;99341.14;105658;1256;74823;-28
2023/12/09 10:44:32;;;;;;;15.70;7.60;;;;;;;-0.01;69.61;99338.02;105501;1257;74349;-27
2023/12/09 10:46:59;;;;;;;13.50;7.40;;;;;;;-0.10;69.98;99332.86;105654;1253;61236;-28
2023/12/09 10:49:26;;;;;;;15.30;8.40;;;;;;;-0.23;70.26;99333.27;105810;1256;61173;-28
2023/12/09 10:51:54;;;;;;;17.00;8.10;;;;;;;-0.29;70.44;99332.27;105535;1253;73897;-27
2023/12/09 10:54:21;;;;;;;13.60;8.00;;;;;;;-0.38;70.81;99331.20;105770;1256;74051;-28
2023/12/09 10:56:49;;;;;;;14.60;7.30;;;;;;;-0.42;70.92;99325.86;105656;1254;72656;-28
2023/12/09 10:59:19;;;;;;;13.70;7.50;;;;;;;-0.45;71.09;99324.41;105402;1256;61070;-28
2023/12/09 11:01:46;;;;;;;11.70;5.80;;;;;;;0.14;71.14;99321.79;105614;1254;61101;-28
2023/12/09 11:04:14;;;;;;;8.40;4.60;;;;;;;0.79;68.57;99316.95;105698;1259;72854;-28
2023/12/09 11:06:42;;;;;;;11.90;6.40;;;;;;;0.92;67.42;99313.76;105734;1259;76269;-28
2023/12/09 11:09:09;;;;;;;17.20;6.90;;;;;;;0.80;67.14;99314.71;105620;1268;72705;-29
2023/12/09 11:11:37;;;;;;;9.40;5.10;;;;;;;0.58;67.49;99309.02;105612;1257;61111;-28
2023/12/09 11:14:09;;;;;;;12.10;6.30;;;;;;;0.28;68.26;99305.29;105586;1254;61167;-28
2023/12/09 11:16:40;;;;;;;8.90;4.00;;;;;;;-0.07;69.16;99295.89;105335;1261;73769;-28
2023/12/09 11:19:08;;;;;;;11.70;6.20;;;;;;;-0.26;69.50;99300.77;105415;1258;73051;-27
2023/12/09 11:21:35;;;;;;;14.10;6.40;;;;;;;-0.29;69.64;99303.10;105264;1253;72680;-28
2023/12/09 11:24:04;;;;;;;10.10;6.10;;;;;;;-0.34;70.21;99302.40;105535;1254;61142;-28
2023/12/09 11:26:33;;;;;;;14.90;6.80;;;;;;;-0.39;70.34;99302.89;105592;1259;61157;-28
2023/12/09 11:29:07;;;;;;;14.80;6.10;;;;;;;-0.46;70.32;99299.70;105378;1260;73661;-27
2023/12/09 11:31:40;;;;;;;15.60;6.60;;;;;;;-0.50;70.67;99296.95;105539;1258;74377;-28
2023/12/09 11:34:07;;;;;;;11.60;5.70;;;;;;;0.14;70.61;99295.17;105414;1254;72735;-28
2023/12/09 11:36:36;;;;;;;9.10;4.90;;;;;;;0.90;68.76;99291.06;105582;1259;61019;-28
2023/12/09 11:39:09;;;;;;;9.10;5.60;;;;;;;0.98;67.14;99283.11;105542;1256;61098;-28
2023/12/09 11:41:38;;;;;;;17.60;6.30;;;;;;;0.84;67.36;99285.34;105570;1255;72426;-28
2023/12/09 11:44:06;;;;;;;15.40;7.30;;;;;;;0.58;67.44;99286.97;105510;1261;74294;-28
2023/12/09 11:46:35;;;;;;;11.20;6.30;;;;;;;0.26;68.16;99282.63;105552;1254;72991;-28
2023/12/09 11:49:03;;;;;;;17.40;7.90;;;;;;;-0.02;69.11;99283.78;105506;1257;61398;-28
2023/12/09 11:51:31;;;;;;;15.20;5.80;;;;;;;-0.24;69.67;99280.58;105607;1259;61969;-27
2023/12/09 11:54:00;;;;;;;12.30;7.10;;;;;;;-0.43;70.09;99277.27;105617;1254;73803;-28
2023/12/09 11:56:27;;;;;;;11.50;5.70;;;;;;;-0.60;70.72;99269.61;105341;1260;74359;-28
2023/12/09 11:58:55;;;;;;;8.60;5.60;;;;;;;-0.76;70.94;99272.01;105527;1256;72447;-27
2023/12/09 12:01:23;;;;;;;13.00;5.80;;;;;;;-0.81;71.81;99272.66;105536;1254;61134;-28
2023/12/09 12:03:50;;;;;;;11.20;6.00;;;;;;;-0.05;70.95;99275.15;105561;1263;61506;-28
2023/12/09 12:06:19;;;;;;;16.80;8.10;;;;;;;0.46;69.09;99277.32;105554;1258;75627;-28
2023/12/09 12:08:48;;;;;;;19.50;7.80;;;;;;;0.53;68.28;99277.41;105450;1260;74410;-28
2023/12/09 12:11:16;;;;;;;20.60;10.00;;;;;;;0.39;68.07;99275.35;105645;1260;72617;-28
2023/12/09 12:13:43;;;;;;;16.40;8.20;;;;;;;0.29;68.41;99277.08;105498;1255;61163;-28
2023/12/09 12:16:11;;;;;;;14.60;7.30;;;;;;;0.19;68.94;99274.86;105576;1266;61296;-28
2023/12/09 12:18:38;;;;;;;18.50;8.10;;;;;;;0.03;68.88;99273.02;105446;1254;73644;-28
2023/12/09 12:21:06;;;;;;;16.90;8.60;;;;;;;-0.13;69.47;99273.20;105531;1256;74337;-28
2023/12/09 12:23:33;;;;;;;19.20;8.00;;;;;;;-0.28;69.86;99270.14;105427;1257;72785;-28
2023/12/09 12:26:00;;;;;;;19.90;8.40;;;;;;;-0.48;70.22;99267.21;105559;1257;61050;-28
2023/12/09 12:28:28;;;;;;;15.90;7.30;;;;;;;-0.65;71.28;99263.48;105494;1253;61141;-28
2023/12/09 12:30:56;;;;;;;12.70;6.30;;;;;;;-0.34;71.45;99264.69;105554;1258;73864;-28
2023/12/09 12:33:30;;;;;;;13.60;6.50;;;;;;;0.38;69.29;99264.95;105448;1260;74327;-28
2023/12/09 12:35:58;;;;;;;12.60;7.00;;;;;;;0.58;68.39;99262.52;105828;1256;72634;-28
2023/12/09 12:38:26;;;;;;;14.40;7.60;;;;;;;0.53;68.22;99264.25;105765;1256;61185;-28
2023/12/09 12:40:54;;;;;;;16.70;7.30;;;;;;;0.42;68.28;99267.91;105595;1257;61157;-28
2023/12/09 12:43:21;;;;;;;16.50;7.90;;;;;;;0.21;68.65;99263.35;105424;1260;73686;-28
2023/12/09 12:45:49;;;;;;;15.70;7.20;;;;;;;0.00;69.31;99262.52;105558;1256;74740;-28
2023/12/09 12:48:17;;;;;;;14.10;7.00;;;;;;;-0.19;69.87;99262.85;105385;1256;72491;-28
2023/12/09 12:50:47;;;;;;;16.70;8.50;;;;;;;-0.41;70.39;99264.39;105455;1260;61184;-28
2023/12/09 12:53:18;;;;;;;11.90;6.10;;;;;;;-0.69;71.05;99264.29;105689;1259;61176;-28
2023/12/09 12:55:45;;;;;;;15.50;6.50;;;;;;;-0.85;72.21;99264.61;105659;1260;73741;-28
2023/12/09 12:58:12;;;;;;;16.20;7.10;;;;;;;-0.20;71.76;99266.45;105735;1258;74243;-29
2023/12/09 13:00:39;;;;;;;12.50;6.60;;;;;;;0.26;70.20;99267.26;105453;1259;72369;-28
2023/12/09 13:03:07;;;;;;;19.30;8.50;;;;;;;0.30;69.36;99267.96;105450;1259;61125;-28
2023/12/09 13:05:34;;;;;;;14.00;6.90;;;;;;;0.15;69.44;99269.87;105506;1266;61256;-28
2023/12/09 13:08:01;;;;;;;14.90;8.20;;;;;;;-0.10;69.34;99262.53;105692;1260;73843;-28
2023/12/09 13:10:29;;;;;;;15.60;8.20;;;;;;;-0.45;70.46;99264.39;105862;1256;74236;-28
2023/12/09 13:12:56;;;;;;;17.30;8.60;;;;;;;-0.67;70.96;99265.06;105861;1257;73997;-28
2023/12/09 13:15:23;;;;;;;15.70;7.60;;;;;;;-0.80;71.38;99271.77;105552;1254;60979;-28
2023/12/09 13:17:50;;;;;;;10.20;6.10;;;;;;;-1.05;72.23;99274.76;105716;1255;61089;-28
2023/12/09 13:20:17;;;;;;;9.30;5.20;;;;;;;-1.11;73.18;99275.44;105776;1256;73648;-28
2023/12/09 13:22:45;;;;;;;13.90;5.80;;;;;;;-0.28;72.30;99276.09;105660;1256;74143;-28
2023/12/09 13:25:13;;;;;;;19.40;8.30;;;;;;;0.39;70.14;99275.85;105534;1256;72608;-28